createdAt,value
2019-02-28T00:01:43.169Z,21.30
2019-02-28T00:04:11.997Z,19.17
2019-02-28T00:06:39.998Z,22.40
2019-02-28T00:09:10.138Z,24.73
2019-02-28T00:11:39.453Z,27.50
2019-02-28T00:14:07.234Z,22.97
2019-02-28T00:16:35.633Z,24.67
2019-02-28T00:19:04.120Z,28.33
2019-02-28T00:21:31.965Z,24.53
2019-02-28T00:24:00.419Z,25.80
2019-02-28T00:26:28.051Z,25.33
2019-02-28T00:28:57.065Z,23.63
2019-02-28T00:31:25.449Z,24.73
2019-02-28T00:33:53.092Z,30.13
2019-02-28T00:36:20.612Z,27.60
2019-02-28T00:38:48.365Z,26.70
2019-02-28T00:41:17.095Z,25.97
2019-02-28T00:43:44.765Z,22.97
2019-02-28T00:46:12.861Z,32.60
2019-02-28T00:48:41.331Z,28.07
2019-02-28T00:51:08.997Z,29.03
2019-02-28T00:53:37.373Z,26.80
2019-02-28T00:56:05.854Z,29.40
2019-02-28T00:58:33.829Z,24.63
2019-02-28T01:01:01.434Z,27.47
2019-02-28T01:03:29.235Z,27.30
2019-02-28T01:05:56.843Z,21.70
2019-02-28T01:08:24.690Z,24.80
2019-02-28T01:10:52.486Z,25.33
2019-02-28T01:13:20.193Z,26.80
2019-02-28T01:15:48.308Z,24.40
2019-02-28T01:18:16.244Z,25.87
2019-02-28T01:20:44.230Z,32.23
2019-02-28T01:23:12.503Z,27.17
2019-02-28T01:25:40.938Z,24.30
2019-02-28T01:28:08.812Z,40.03
2019-02-28T01:30:40.328Z,26.50
2019-02-28T01:33:06.297Z,29.50
2019-02-28T01:35:34.148Z,31.40
2019-02-28T01:38:01.442Z,27.90
2019-02-28T01:40:29.379Z,37.27
2019-02-28T01:42:56.637Z,29.73
2019-02-28T01:45:24.616Z,29.20
2019-02-28T01:47:52.421Z,32.97
2019-02-28T01:50:20.199Z,29.30
2019-02-28T01:52:47.590Z,29.00
2019-02-28T01:55:15.466Z,32.53
2019-02-28T01:57:44.249Z,39.30
2019-02-28T02:00:13.377Z,34.80
2019-02-28T02:02:40.724Z,31.20
2019-02-28T02:05:08.658Z,34.27
2019-02-28T02:07:36.000Z,34.00
2019-02-28T02:10:07.726Z,29.73
2019-02-28T02:12:35.642Z,30.23
2019-02-28T02:15:05.106Z,30.00
2019-02-28T02:17:35.471Z,31.27
2019-02-28T02:20:03.595Z,31.63
2019-02-28T02:22:31.218Z,31.13
2019-02-28T02:24:59.291Z,37.70
2019-02-28T02:27:28.692Z,32.80
2019-02-28T02:29:57.062Z,31.47
2019-02-28T02:32:24.595Z,31.00
2019-02-28T02:34:52.825Z,34.10
2019-02-28T02:37:20.495Z,33.90
2019-02-28T02:39:50.081Z,32.50
2019-02-28T02:42:18.036Z,37.90
2019-02-28T02:44:45.563Z,33.93
2019-02-28T02:47:13.365Z,34.43
2019-02-28T02:49:41.211Z,43.30
2019-02-28T02:52:09.312Z,38.40
2019-02-28T02:54:37.868Z,31.27
2019-02-28T02:57:05.288Z,39.43
2019-02-28T02:59:37.250Z,44.17
2019-02-28T03:02:02.723Z,45.67
2019-02-28T03:04:30.357Z,32.33
2019-02-28T03:06:57.859Z,36.37
2019-02-28T03:09:26.215Z,38.00
2019-02-28T03:11:57.620Z,38.10
2019-02-28T03:14:22.996Z,34.87
2019-02-28T03:16:50.949Z,34.10
2019-02-28T03:19:18.785Z,37.70
2019-02-28T03:21:51.010Z,35.70
2019-02-28T03:24:16.421Z,40.13
2019-02-28T03:26:44.786Z,35.97
2019-02-28T03:29:12.624Z,34.73
2019-02-28T03:31:40.698Z,38.30
2019-02-28T03:34:13.127Z,34.50
2019-02-28T03:36:37.901Z,36.97
2019-02-28T03:39:06.331Z,36.17
2019-02-28T03:41:34.620Z,32.77
2019-02-28T03:44:01.950Z,31.00
2019-02-28T03:46:29.728Z,33.50
2019-02-28T03:48:57.219Z,34.27
2019-02-28T03:51:28.362Z,30.00
2019-02-28T03:53:55.940Z,35.50
2019-02-28T03:56:24.402Z,36.40
2019-02-28T03:58:52.469Z,33.13
2019-02-28T04:01:20.024Z,38.47
2019-02-28T04:03:47.672Z,40.87
2019-02-28T04:06:15.586Z,38.53
2019-02-28T04:08:43.144Z,44.80
2019-02-28T04:11:11.800Z,35.07
2019-02-28T04:13:39.803Z,38.20
2019-02-28T04:16:09.497Z,47.83
2019-02-28T04:18:43.909Z,36.20
2019-02-28T04:21:10.273Z,40.10
2019-02-28T04:23:37.019Z,40.53
2019-02-28T04:26:04.666Z,36.37
2019-02-28T04:28:32.368Z,39.37
2019-02-28T04:30:59.908Z,38.03
2019-02-28T04:33:27.745Z,37.93
2019-02-28T04:35:56.753Z,42.50
2019-02-28T04:38:24.765Z,38.70
2019-02-28T04:40:52.319Z,41.63
2019-02-28T04:43:20.306Z,39.70
2019-02-28T04:45:48.167Z,37.80
2019-02-28T04:48:15.846Z,37.90
2019-02-28T04:50:44.200Z,43.13
2019-02-28T04:53:11.551Z,41.47
2019-02-28T04:55:39.490Z,42.13
2019-02-28T04:58:07.158Z,43.27
2019-02-28T05:00:37.792Z,39.03
2019-02-28T05:03:05.225Z,44.50
2019-02-28T05:05:33.146Z,42.47
2019-02-28T05:08:04.687Z,47.53
2019-02-28T05:10:30.653Z,45.73
2019-02-28T05:12:58.478Z,53.60
2019-02-28T05:15:26.456Z,45.50
2019-02-28T05:17:55.933Z,44.40
2019-02-28T05:20:23.870Z,41.07
2019-02-28T05:22:51.377Z,44.43
2019-02-28T05:25:19.371Z,46.63
2019-02-28T05:27:48.268Z,46.80
2019-02-28T05:30:19.519Z,60.70
2019-02-28T05:32:46.693Z,51.47
2019-02-28T05:35:14.180Z,54.93
2019-02-28T05:37:46.959Z,46.33
2019-02-28T05:40:11.146Z,49.80
2019-02-28T05:42:39.067Z,48.93
2019-02-28T05:45:07.144Z,45.33
2019-02-28T05:47:45.827Z,44.60
2019-02-28T05:50:04.878Z,48.00
2019-02-28T05:52:33.748Z,54.20
2019-02-28T05:55:02.326Z,57.90
2019-02-28T05:57:29.722Z,51.30
2019-02-28T06:00:01.368Z,51.93
2019-02-28T06:02:27.564Z,45.67
2019-02-28T06:04:57.696Z,60.80
2019-02-28T06:07:28.700Z,44.47
2019-02-28T06:09:56.802Z,51.77
2019-02-28T06:12:24.719Z,47.70
2019-02-28T06:14:53.050Z,55.90
2019-02-28T06:17:21.867Z,56.80
2019-02-28T06:19:49.753Z,65.70
2019-02-28T06:22:17.967Z,59.50
2019-02-28T06:24:46.297Z,55.20
2019-02-28T06:27:14.713Z,57.43
2019-02-28T06:29:42.491Z,53.27
2019-02-28T06:32:10.206Z,59.87
2019-02-28T06:34:39.461Z,51.83
2019-02-28T06:37:07.967Z,46.27
2019-02-28T06:39:37.552Z,58.43
2019-02-28T06:42:05.856Z,53.13
2019-02-28T06:44:33.528Z,50.47
2019-02-28T06:47:01.719Z,47.93
2019-02-28T06:49:29.997Z,62.73
2019-02-28T06:51:58.127Z,52.77
2019-02-28T06:54:27.569Z,51.70
2019-02-28T06:56:55.710Z,49.57
2019-02-28T06:59:24.244Z,84.27
2019-02-28T07:01:56.582Z,77.70
2019-02-28T07:04:22.487Z,63.20
2019-02-28T07:06:50.202Z,58.77
2019-02-28T07:09:17.933Z,59.37
2019-02-28T07:11:46.117Z,57.37
2019-02-28T07:14:14.206Z,52.10
2019-02-28T07:16:42.330Z,52.93
2019-02-28T07:19:10.380Z,47.83
2019-02-28T07:21:42.921Z,50.07
2019-02-28T07:24:08.338Z,52.23
2019-02-28T07:26:35.990Z,53.13
2019-02-28T07:29:03.812Z,51.60
2019-02-28T07:31:33.807Z,51.83
2019-02-28T07:34:02.168Z,58.40
2019-02-28T07:36:30.482Z,51.87
2019-02-28T07:39:01.224Z,49.20
2019-02-28T07:41:30.196Z,56.60
2019-02-28T07:43:59.067Z,49.50
2019-02-28T07:46:27.170Z,47.03
2019-02-28T07:48:55.197Z,52.83
2019-02-28T07:51:26.180Z,50.93
2019-02-28T07:53:52.860Z,45.27
2019-02-28T07:56:25.370Z,51.57
2019-02-28T07:58:53.241Z,55.40
2019-02-28T08:01:21.177Z,64.20
2019-02-28T08:03:48.880Z,57.67
2019-02-28T08:06:16.782Z,49.90
2019-02-28T08:08:44.873Z,49.13
2019-02-28T08:11:12.674Z,46.07
2019-02-28T08:13:40.908Z,43.70
2019-02-28T08:16:08.709Z,50.53
2019-02-28T08:18:36.607Z,46.67
2019-02-28T08:21:05.362Z,46.10
2019-02-28T08:23:34.078Z,54.43
2019-02-28T08:26:02.570Z,48.47
2019-02-28T08:28:35.823Z,62.07
2019-02-28T08:31:00.798Z,50.93
2019-02-28T08:33:29.039Z,49.77
2019-02-28T08:35:57.433Z,44.37
2019-02-28T08:38:25.084Z,50.43
2019-02-28T08:40:55.611Z,42.20
2019-02-28T08:43:27.120Z,44.70
2019-02-28T08:45:53.466Z,43.67
2019-02-28T08:48:21.139Z,41.63
2019-02-28T08:50:49.011Z,45.90
2019-02-28T08:53:19.637Z,48.13
2019-02-28T08:55:47.684Z,59.00
2019-02-28T08:58:15.696Z,48.27
2019-02-28T09:00:43.505Z,44.07
2019-02-28T09:03:11.169Z,50.43
2019-02-28T09:05:39.586Z,48.43
2019-02-28T09:08:07.654Z,53.87
2019-02-28T09:10:37.380Z,44.73
2019-02-28T09:13:11.280Z,48.80
2019-02-28T09:15:39.244Z,58.70
2019-02-28T09:18:07.436Z,68.53
2019-02-28T09:20:35.348Z,58.67
2019-02-28T09:23:03.463Z,55.00
2019-02-28T09:25:32.045Z,48.10
2019-02-28T09:28:01.374Z,52.33
2019-02-28T09:30:32.478Z,44.90
2019-02-28T09:33:00.362Z,49.23
2019-02-28T09:35:28.667Z,57.07
2019-02-28T09:38:06.446Z,46.40
2019-02-28T09:40:31.329Z,46.10
2019-02-28T09:42:59.986Z,51.33
2019-02-28T09:45:28.128Z,43.43
2019-02-28T09:48:00.770Z,39.47
2019-02-28T09:50:27.202Z,43.83
2019-02-28T09:52:54.890Z,41.17
2019-02-28T09:55:22.656Z,64.63
2019-02-28T09:57:54.073Z,48.80
2019-02-28T10:00:20.719Z,47.90
2019-02-28T10:02:54.301Z,43.07
2019-02-28T10:05:22.321Z,50.20
2019-02-28T10:07:50.184Z,41.33
2019-02-28T10:10:21.083Z,44.80
2019-02-28T10:12:49.368Z,43.17
2019-02-28T10:15:18.249Z,40.90
2019-02-28T10:17:47.786Z,33.80
2019-02-28T10:20:27.182Z,35.67
2019-02-28T10:22:53.336Z,35.90
2019-02-28T10:25:21.213Z,47.63
2019-02-28T10:27:49.338Z,34.73
2019-02-28T10:30:18.709Z,39.50
2019-02-28T10:32:46.820Z,36.30
2019-02-28T10:35:14.521Z,42.37
2019-02-28T10:37:42.245Z,37.63
2019-02-28T10:40:14.259Z,39.23
2019-02-28T10:42:41.817Z,44.50
2019-02-28T10:45:10.436Z,42.73
2019-02-28T10:47:37.912Z,39.93
2019-02-28T10:50:08.525Z,40.47
2019-02-28T10:52:36.853Z,41.00
2019-02-28T10:55:08.808Z,41.80
2019-02-28T10:57:40.461Z,42.20
2019-02-28T11:00:13.293Z,43.70
2019-02-28T11:02:41.467Z,61.07
2019-02-28T11:05:15.317Z,55.20
2019-02-28T11:07:44.047Z,44.60
2019-02-28T11:10:11.967Z,50.10
2019-02-28T11:12:39.893Z,56.40
2019-02-28T11:15:10.422Z,60.00
2019-02-28T11:17:38.288Z,49.57
2019-02-28T11:20:08.439Z,58.70
2019-02-28T11:22:39.565Z,52.07
2019-02-28T11:25:08.168Z,52.97
2019-02-28T11:27:37.013Z,53.40
2019-02-28T11:30:07.455Z,63.70
2019-02-28T11:32:36.820Z,52.37
2019-02-28T11:35:05.959Z,55.27
2019-02-28T11:37:34.078Z,58.43
2019-02-28T11:40:02.440Z,58.83
2019-02-28T11:42:33.366Z,54.20
2019-02-28T11:45:01.769Z,59.87
2019-02-28T11:47:30.417Z,60.93
2019-02-28T11:50:00.412Z,59.70
2019-02-28T11:52:30.390Z,62.30
2019-02-28T11:54:57.856Z,57.53
2019-02-28T11:57:25.573Z,56.67
2019-02-28T11:59:57.286Z,60.00
2019-02-28T12:02:22.817Z,61.83
2019-02-28T12:04:50.205Z,55.07
2019-02-28T12:07:17.840Z,57.07
2019-02-28T12:09:46.119Z,50.87
2019-02-28T12:12:14.146Z,58.53
2019-02-28T12:14:42.714Z,55.83
2019-02-28T12:17:10.704Z,54.80
2019-02-28T12:19:38.408Z,63.37
2019-02-28T12:22:09.157Z,53.73
2019-02-28T12:24:36.519Z,52.40
2019-02-28T12:27:08.244Z,53.57
2019-02-28T12:29:36.454Z,46.00
2019-02-28T12:32:07.958Z,47.80
2019-02-28T12:34:34.564Z,47.87
2019-02-28T12:37:02.449Z,49.00
2019-02-28T12:39:36.306Z,41.30
2019-02-28T12:42:03.392Z,39.77
2019-02-28T12:44:31.496Z,54.27
2019-02-28T12:46:59.451Z,43.53
2019-02-28T12:49:27.787Z,42.57
2019-02-28T12:51:55.893Z,43.27
2019-02-28T12:54:26.075Z,53.73
2019-02-28T12:56:53.801Z,46.20
2019-02-28T12:59:21.735Z,50.50
2019-02-28T13:01:50.421Z,43.90
2019-02-28T13:04:19.000Z,61.10
2019-02-28T13:06:46.910Z,70.53
2019-02-28T13:09:16.955Z,63.87
2019-02-28T13:11:44.310Z,61.70
2019-02-28T13:14:11.750Z,59.43
2019-02-28T13:16:40.661Z,58.97
2019-02-28T13:19:08.946Z,60.83
2019-02-28T13:21:39.510Z,57.67
2019-02-28T13:24:09.681Z,59.17
2019-02-28T13:26:37.301Z,57.87
2019-02-28T13:29:05.966Z,59.30
2019-02-28T13:31:35.656Z,57.17
2019-02-28T13:34:04.485Z,60.30
2019-02-28T13:36:32.376Z,55.03
2019-02-28T13:39:01.142Z,73.73
2019-02-28T13:41:29.309Z,56.27
2019-02-28T13:43:59.289Z,56.40
2019-02-28T13:46:33.933Z,53.07
2019-02-28T13:48:58.482Z,51.83
2019-02-28T13:51:26.447Z,51.40
2019-02-28T13:53:54.788Z,57.73
2019-02-28T13:56:22.506Z,53.23
2019-02-28T13:58:53.759Z,51.67
2019-02-28T14:01:20.515Z,45.40
2019-02-28T14:03:48.054Z,43.63
2019-02-28T14:06:19.792Z,42.60
2019-02-28T14:08:47.760Z,46.33
2019-02-28T14:11:16.684Z,46.30
2019-02-28T14:13:44.717Z,45.23
2019-02-28T14:16:12.737Z,41.30
2019-02-28T14:18:42.475Z,40.60
2019-02-28T14:21:15.321Z,40.83
2019-02-28T14:23:44.133Z,35.73
2019-02-28T14:26:14.031Z,32.90
2019-02-28T14:28:42.303Z,41.93
2019-02-28T14:31:10.157Z,39.80
2019-02-28T14:33:38.453Z,34.30
2019-02-28T14:36:07.497Z,35.20
2019-02-28T14:38:35.779Z,35.50
2019-02-28T14:41:03.465Z,34.67
2019-02-28T14:43:31.115Z,43.13
2019-02-28T14:45:59.177Z,34.03
2019-02-28T14:48:27.392Z,31.80
2019-02-28T14:50:55.246Z,34.73
2019-02-28T14:53:23.407Z,30.90
2019-02-28T14:55:51.948Z,28.90
2019-02-28T14:58:21.295Z,33.00
2019-02-28T15:00:50.265Z,32.27
2019-02-28T15:03:18.267Z,32.23
2019-02-28T15:05:48.302Z,32.63
2019-02-28T15:08:17.481Z,30.07
2019-02-28T15:10:47.089Z,24.77
2019-02-28T15:13:15.492Z,26.80
2019-02-28T15:15:43.855Z,32.43
2019-02-28T15:18:13.983Z,31.07
2019-02-28T15:20:41.932Z,27.97
2019-02-28T15:23:11.132Z,24.20
2019-02-28T15:25:39.736Z,24.83
2019-02-28T15:28:07.373Z,24.27
2019-02-28T15:30:35.981Z,20.97
2019-02-28T15:33:03.927Z,37.03
2019-02-28T15:35:32.316Z,22.40
2019-02-28T15:38:00.493Z,23.87
2019-02-28T15:40:30.250Z,28.80
2019-02-28T15:42:58.464Z,20.90
2019-02-28T15:45:26.999Z,21.47
2019-02-28T15:47:59.119Z,18.60
2019-02-28T15:50:28.007Z,19.30
2019-02-28T15:52:58.499Z,17.70
2019-02-28T15:55:26.426Z,22.97
2019-02-28T15:57:57.358Z,15.33
2019-02-28T16:00:28.446Z,20.73
2019-02-28T16:02:57.655Z,17.10
2019-02-28T16:05:26.393Z,17.60
2019-02-28T16:07:54.811Z,13.77
2019-02-28T16:10:24.398Z,16.10
2019-02-28T16:12:52.441Z,15.87
2019-02-28T16:15:20.198Z,11.00
2019-02-28T16:17:47.855Z,10.73
2019-02-28T16:20:17.567Z,12.00
2019-02-28T16:22:45.445Z,14.23
2019-02-28T16:25:17.216Z,11.50
2019-02-28T16:27:45.819Z,7.03
2019-02-28T16:30:15.722Z,10.90
2019-02-28T16:32:45.565Z,10.93
2019-02-28T16:35:15.319Z,10.13
2019-02-28T16:37:43.275Z,9.90
2019-02-28T16:40:13.243Z,10.43
2019-02-28T16:42:43.472Z,16.03
2019-02-28T16:45:21.405Z,11.57
2019-02-28T16:47:49.443Z,10.57
2019-02-28T16:50:18.924Z,9.73
2019-02-28T16:52:46.776Z,11.83
2019-02-28T16:55:14.800Z,12.40
2019-02-28T16:57:46.779Z,11.73
2019-02-28T17:00:13.886Z,10.07
2019-02-28T17:02:41.378Z,11.33
2019-02-28T17:05:09.271Z,14.53
2019-02-28T17:07:40.501Z,7.47
2019-02-28T17:10:11.968Z,6.43
2019-02-28T17:13:07.988Z,13.67
2019-02-28T17:16:02.459Z,16.30
2019-02-28T17:18:31.671Z,13.93
2019-02-28T17:21:00.265Z,7.80
2019-02-28T17:23:28.148Z,8.17
2019-02-28T17:25:57.530Z,11.10
2019-02-28T17:28:51.052Z,9.53
2019-02-28T17:31:50.635Z,9.90
2019-02-28T17:34:23.864Z,11.53
2019-02-28T17:36:50.233Z,10.03
2019-02-28T17:39:18.825Z,11.07
2019-02-28T17:41:47.772Z,11.70
2019-02-28T17:44:47.523Z,7.27
2019-02-28T17:48:06.321Z,9.70
2019-02-28T17:51:01.695Z,8.00
2019-02-28T17:54:07.076Z,8.50
2019-02-28T17:57:31.842Z,9.67
2019-02-28T18:00:56.631Z,12.17
2019-02-28T18:04:03.523Z,11.90
2019-02-28T18:07:08.952Z,10.93
2019-02-28T18:10:15.003Z,8.30
2019-02-28T18:13:11.370Z,12.30
2019-02-28T18:16:30.738Z,11.50
2019-02-28T18:19:37.243Z,13.50
2019-02-28T18:22:58.546Z,6.47
2019-02-28T18:25:57.105Z,12.57
2019-02-28T18:29:21.668Z,9.10
2019-02-28T18:31:49.400Z,12.73
2019-02-28T18:34:25.573Z,7.60
2019-02-28T18:36:53.334Z,8.90
2019-02-28T18:39:21.375Z,9.43
2019-02-28T18:41:50.726Z,76.97
2019-02-28T18:44:19.657Z,43.60
2019-02-28T18:46:48.899Z,17.53
2019-02-28T18:49:16.758Z,16.37
2019-02-28T18:51:45.397Z,9.40
2019-02-28T18:54:13.200Z,7.13
2019-02-28T18:56:41.241Z,9.37
2019-02-28T18:59:08.906Z,9.70
2019-02-28T19:01:37.654Z,6.00
2019-02-28T19:04:05.489Z,7.90
2019-02-28T19:06:33.168Z,6.30
2019-02-28T19:09:01.146Z,4.77
2019-02-28T19:11:29.038Z,8.90
2019-02-28T19:13:56.481Z,7.73
2019-02-28T19:16:24.602Z,7.53
2019-02-28T19:18:52.919Z,4.60
2019-02-28T19:21:21.911Z,9.10
2019-02-28T19:23:49.988Z,7.23
2019-02-28T19:26:20.575Z,12.47
2019-02-28T19:28:48.264Z,9.40
2019-02-28T19:31:15.936Z,11.33
2019-02-28T19:33:43.955Z,5.60
2019-02-28T19:36:11.590Z,9.33
2019-02-28T19:38:39.226Z,9.83
2019-02-28T19:41:06.652Z,24.13
2019-02-28T19:43:34.366Z,4.57
2019-02-28T19:46:02.284Z,6.30
2019-02-28T19:48:33.224Z,5.63
2019-02-28T19:51:00.983Z,8.53
2019-02-28T19:53:28.234Z,5.70
2019-02-28T19:55:56.788Z,8.03
2019-02-28T19:58:24.611Z,7.27
2019-02-28T20:00:53.672Z,9.13
2019-02-28T20:03:22.550Z,6.87
2019-02-28T20:05:51.373Z,9.40
2019-02-28T20:08:19.212Z,9.97
2019-02-28T20:10:47.476Z,10.90
2019-02-28T20:13:15.293Z,11.20
2019-02-28T20:15:43.126Z,7.70
2019-02-28T20:18:10.935Z,7.10
2019-02-28T20:20:38.421Z,6.77
2019-02-28T20:23:06.096Z,12.50
2019-02-28T20:25:33.865Z,9.73
2019-02-28T20:28:01.423Z,5.97
2019-02-28T20:30:29.261Z,10.07
2019-02-28T20:32:56.624Z,8.93
2019-02-28T20:35:26.891Z,5.43
2019-02-28T20:37:54.194Z,14.90
2019-02-28T20:40:22.511Z,17.23
2019-02-28T20:42:51.678Z,11.17
2019-02-28T20:45:19.728Z,31.97
2019-02-28T20:47:47.383Z,16.10
2019-02-28T20:50:22.188Z,16.00
2019-02-28T20:52:50.054Z,8.17
2019-02-28T20:55:18.139Z,7.67
2019-02-28T20:57:45.913Z,8.23
2019-02-28T21:00:15.023Z,8.30
2019-02-28T21:02:42.721Z,7.20
2019-02-28T21:05:10.626Z,8.57
2019-02-28T21:07:38.743Z,9.90
2019-02-28T21:10:06.649Z,10.30
2019-02-28T21:12:34.627Z,7.70
2019-02-28T21:15:02.169Z,8.00
2019-02-28T21:17:29.801Z,6.73
2019-02-28T21:19:57.910Z,7.50
2019-02-28T21:22:26.372Z,7.43
2019-02-28T21:24:53.755Z,8.17
2019-02-28T21:27:21.082Z,8.73
2019-02-28T21:29:48.857Z,9.97
2019-02-28T21:32:16.455Z,6.97
2019-02-28T21:34:44.808Z,8.27
2019-02-28T21:37:12.727Z,9.20
2019-02-28T21:39:40.906Z,9.73
2019-02-28T21:42:09.064Z,10.93
2019-02-28T21:44:37.235Z,10.63
2019-02-28T21:47:04.816Z,9.87
2019-02-28T21:49:32.503Z,12.47
2019-02-28T21:52:00.240Z,11.10
2019-02-28T21:54:28.440Z,9.47
2019-02-28T21:56:56.880Z,10.03
2019-02-28T21:59:24.592Z,11.90
2019-02-28T22:01:52.049Z,11.10
2019-02-28T22:04:19.659Z,9.37
2019-02-28T22:06:47.773Z,12.50
2019-02-28T22:09:15.096Z,10.00
2019-02-28T22:11:42.683Z,9.33
2019-02-28T22:14:09.923Z,10.13
2019-02-28T22:16:37.973Z,11.87
2019-02-28T22:19:05.843Z,14.23
2019-02-28T22:21:33.506Z,9.93
2019-02-28T22:24:01.510Z,10.67
2019-02-28T22:26:29.409Z,15.30
2019-02-28T22:28:57.314Z,12.23
2019-02-28T22:31:46.124Z,11.87
2019-02-28T22:34:26.319Z,10.37
2019-02-28T22:36:54.857Z,12.20
2019-02-28T22:39:22.238Z,10.63
2019-02-28T22:41:51.055Z,11.00
2019-02-28T22:44:19.059Z,11.10
2019-02-28T22:46:46.925Z,12.70
2019-02-28T22:49:16.889Z,10.73
2019-02-28T22:51:44.833Z,7.17
2019-02-28T22:54:12.770Z,9.23
2019-02-28T22:56:40.472Z,11.73
2019-02-28T22:59:09.008Z,8.60
2019-02-28T23:01:37.622Z,9.10
2019-02-28T23:04:05.190Z,11.03
2019-02-28T23:06:33.252Z,6.97
2019-02-28T23:09:00.998Z,9.87
2019-02-28T23:11:28.860Z,10.50
2019-02-28T23:13:56.501Z,6.10
2019-02-28T23:16:24.489Z,4.57
2019-02-28T23:18:51.959Z,8.37
2019-02-28T23:21:19.528Z,6.50
2019-02-28T23:23:46.970Z,9.17
2019-02-28T23:26:14.784Z,5.70
2019-02-28T23:29:18.938Z,5.97
2019-02-28T23:32:23.881Z,7.40
2019-02-28T23:34:53.280Z,7.20
2019-02-28T23:37:20.853Z,4.50
2019-02-28T23:39:48.600Z,6.70
2019-02-28T23:42:16.371Z,4.80
2019-02-28T23:44:44.426Z,4.40
2019-02-28T23:47:12.143Z,4.70
2019-02-28T23:49:39.660Z,4.97
2019-02-28T23:52:07.732Z,5.77
2019-02-28T23:54:35.703Z,4.80
2019-02-28T23:57:03.677Z,13.27
2019-02-28T23:59:31.376Z,5.53
